createdAt,value
2018-10-19T00:00:20.542Z,12.00
2018-10-19T00:02:48.247Z,12.00
2018-10-19T00:05:16.012Z,12.00
2018-10-19T00:07:46.946Z,12.00
2018-10-19T00:10:14.628Z,12.00
2018-10-19T00:12:42.328Z,12.00
2018-10-19T00:15:10.090Z,12.00
2018-10-19T00:17:37.721Z,12.00
2018-10-19T00:20:06.010Z,12.00
2018-10-19T00:22:33.700Z,11.90
2018-10-19T00:25:01.397Z,11.90
2018-10-19T00:27:29.114Z,11.90
2018-10-19T00:29:56.827Z,11.90
2018-10-19T00:32:24.501Z,12.00
2018-10-19T00:34:52.162Z,12.00
2018-10-19T00:37:19.841Z,12.00
2018-10-19T00:39:47.529Z,11.90
2018-10-19T00:42:15.264Z,11.90
2018-10-19T00:44:42.922Z,11.90
2018-10-19T00:47:10.646Z,11.90
2018-10-19T00:49:38.252Z,11.90
2018-10-19T00:52:05.974Z,11.90
2018-10-19T00:54:33.666Z,11.90
2018-10-19T00:57:01.561Z,11.80
2018-10-19T00:59:29.261Z,11.80
2018-10-19T01:01:56.958Z,11.80
2018-10-19T01:04:24.621Z,11.80
2018-10-19T01:06:52.298Z,11.80
2018-10-19T01:09:20.001Z,11.80
2018-10-19T01:11:47.699Z,11.80
2018-10-19T01:14:15.378Z,11.80
2018-10-19T01:16:43.076Z,11.70
2018-10-19T01:19:10.794Z,11.70
2018-10-19T01:21:38.498Z,11.70
2018-10-19T01:24:06.241Z,11.70
2018-10-19T01:26:33.941Z,11.70
2018-10-19T01:29:01.660Z,11.70
2018-10-19T01:31:29.497Z,11.70
2018-10-19T01:33:57.188Z,11.70
2018-10-19T01:36:29.143Z,11.70
2018-10-19T01:38:56.811Z,11.60
2018-10-19T01:41:24.491Z,11.60
2018-10-19T01:43:52.197Z,11.60
2018-10-19T01:46:19.856Z,11.60
2018-10-19T01:48:47.529Z,11.50
2018-10-19T01:51:15.250Z,11.50
2018-10-19T01:53:43.009Z,11.60
2018-10-19T01:56:10.714Z,11.60
2018-10-19T01:58:38.380Z,11.60
2018-10-19T02:01:06.049Z,11.60
2018-10-19T02:03:33.698Z,11.50
2018-10-19T02:06:01.413Z,11.50
2018-10-19T02:08:29.085Z,11.60
2018-10-19T02:10:56.793Z,11.60
2018-10-19T02:13:24.642Z,11.60
2018-10-19T02:15:52.370Z,11.60
2018-10-19T02:18:20.021Z,11.60
2018-10-19T02:20:47.800Z,11.70
2018-10-19T02:23:15.517Z,11.70
2018-10-19T02:25:43.318Z,11.70
2018-10-19T02:28:11.004Z,11.70
2018-10-19T02:30:38.678Z,11.60
2018-10-19T02:33:06.356Z,11.60
2018-10-19T02:35:34.071Z,11.60
2018-10-19T02:38:01.774Z,11.60
2018-10-19T02:40:29.466Z,11.60
2018-10-19T02:42:57.149Z,11.60
2018-10-19T02:45:24.822Z,11.60
2018-10-19T02:47:52.522Z,11.60
2018-10-19T02:50:20.180Z,11.60
2018-10-19T02:52:47.868Z,11.60
2018-10-19T02:55:15.559Z,11.60
2018-10-19T02:57:43.256Z,11.60
2018-10-19T03:00:12.503Z,11.70
2018-10-19T03:02:40.732Z,11.60
2018-10-19T03:05:09.299Z,11.60
2018-10-19T03:07:37.021Z,11.60
2018-10-19T03:10:05.322Z,11.60
2018-10-19T03:12:33.020Z,11.70
2018-10-19T03:15:00.757Z,11.70
2018-10-19T03:17:28.438Z,11.70
2018-10-19T03:19:56.110Z,11.70
2018-10-19T03:22:23.815Z,11.80
2018-10-19T03:24:51.466Z,11.70
2018-10-19T03:27:19.275Z,11.70
2018-10-19T03:29:46.938Z,11.60
2018-10-19T03:32:14.784Z,11.60
2018-10-19T03:34:42.451Z,11.60
2018-10-19T03:37:10.109Z,11.60
2018-10-19T03:39:37.805Z,11.70
2018-10-19T03:42:05.473Z,11.60
2018-10-19T03:44:33.157Z,11.70
2018-10-19T03:47:00.841Z,11.60
2018-10-19T03:49:28.506Z,11.60
2018-10-19T03:51:56.168Z,11.60
2018-10-19T03:54:23.885Z,11.60
2018-10-19T03:56:51.721Z,11.60
2018-10-19T03:59:19.559Z,11.60
2018-10-19T04:01:47.205Z,11.50
2018-10-19T04:04:14.927Z,11.50
2018-10-19T04:06:42.565Z,11.50
2018-10-19T04:09:12.182Z,11.50
2018-10-19T04:11:39.828Z,11.50
2018-10-19T04:14:08.166Z,11.50
2018-10-19T04:16:35.910Z,11.50
2018-10-19T04:19:03.690Z,11.50
2018-10-19T04:21:31.368Z,11.50
2018-10-19T04:23:59.067Z,11.50
2018-10-19T04:26:26.712Z,11.50
2018-10-19T04:28:54.444Z,11.50
2018-10-19T04:31:22.209Z,11.50
2018-10-19T04:33:49.952Z,11.60
2018-10-19T04:36:17.709Z,11.60
2018-10-19T04:38:45.366Z,11.60
2018-10-19T04:41:13.122Z,11.60
2018-10-19T04:43:40.735Z,11.60
2018-10-19T04:46:08.414Z,11.60
2018-10-19T04:48:36.101Z,11.60
2018-10-19T04:51:03.811Z,11.50
2018-10-19T04:53:31.485Z,11.50
2018-10-19T04:55:59.201Z,11.50
2018-10-19T04:58:26.960Z,11.60
2018-10-19T05:00:54.639Z,11.50
2018-10-19T05:03:22.466Z,11.50
2018-10-19T05:05:50.207Z,11.50
2018-10-19T05:08:17.987Z,11.50
2018-10-19T05:10:45.550Z,11.40
2018-10-19T05:13:13.310Z,11.50
2018-10-19T05:15:40.956Z,11.50
2018-10-19T05:18:08.650Z,11.40
2018-10-19T05:20:36.331Z,11.40
2018-10-19T05:23:04.405Z,11.50
2018-10-19T05:25:32.068Z,11.40
2018-10-19T05:27:59.792Z,11.30
2018-10-19T05:30:27.495Z,11.30
2018-10-19T05:32:55.195Z,11.20
2018-10-19T05:35:22.851Z,11.20
2018-10-19T05:37:50.509Z,11.30
2018-10-19T05:40:18.204Z,11.30
2018-10-19T05:42:45.863Z,11.20
2018-10-19T05:45:13.596Z,11.20
2018-10-19T05:47:41.269Z,11.20
2018-10-19T05:50:10.054Z,11.20
2018-10-19T05:52:38.160Z,11.20
2018-10-19T05:55:05.916Z,11.20
2018-10-19T05:57:33.685Z,11.30
2018-10-19T06:00:01.365Z,11.30
2018-10-19T06:02:29.375Z,11.30
2018-10-19T06:04:56.996Z,11.30
2018-10-19T06:07:25.980Z,11.20
2018-10-19T06:09:53.710Z,11.20
2018-10-19T06:12:21.366Z,11.20
2018-10-19T06:14:49.033Z,11.20
2018-10-19T06:17:16.790Z,11.20
2018-10-19T06:19:44.466Z,11.20
2018-10-19T06:22:12.189Z,11.20
2018-10-19T06:24:39.828Z,11.20
2018-10-19T06:27:07.862Z,11.20
2018-10-19T06:29:35.513Z,11.20
2018-10-19T06:32:03.255Z,11.20
2018-10-19T06:34:31.006Z,11.30
2018-10-19T06:36:58.692Z,11.40
2018-10-19T06:39:26.366Z,11.40
2018-10-19T06:41:54.030Z,11.40
2018-10-19T06:44:21.709Z,11.50
2018-10-19T06:46:49.446Z,11.40
2018-10-19T06:49:17.910Z,11.30
2018-10-19T06:51:45.661Z,11.40
2018-10-19T06:54:13.390Z,11.30
2018-10-19T06:56:41.247Z,11.30
2018-10-19T06:59:09.187Z,11.40
2018-10-19T07:01:37.101Z,11.30
2018-10-19T07:04:05.267Z,11.30
2018-10-19T07:06:32.989Z,11.30
2018-10-19T07:09:00.938Z,11.40
2018-10-19T07:11:29.397Z,11.60
2018-10-19T07:13:57.093Z,11.60
2018-10-19T07:16:25.386Z,11.60
2018-10-19T07:18:53.130Z,11.50
2018-10-19T07:21:22.027Z,11.50
2018-10-19T07:23:49.789Z,11.60
2018-10-19T07:26:17.526Z,11.60
2018-10-19T07:28:46.006Z,11.60
2018-10-19T07:31:13.733Z,11.60
2018-10-19T07:33:41.416Z,11.70
2018-10-19T07:36:09.089Z,11.60
2018-10-19T07:38:36.870Z,11.70
2018-10-19T07:41:04.702Z,11.60
2018-10-19T07:43:32.479Z,11.60
2018-10-19T07:46:00.154Z,11.60
2018-10-19T07:48:27.915Z,11.60
2018-10-19T07:50:55.657Z,11.60
2018-10-19T07:53:23.485Z,11.70
2018-10-19T07:55:51.198Z,11.80
2018-10-19T07:58:18.925Z,11.70
2018-10-19T08:00:46.789Z,11.80
2018-10-19T08:03:14.433Z,11.90
2018-10-19T08:05:42.150Z,12.00
2018-10-19T08:08:09.861Z,12.10
2018-10-19T08:10:37.645Z,12.10
2018-10-19T08:13:05.338Z,12.20
2018-10-19T08:15:33.058Z,12.10
2018-10-19T08:18:00.810Z,12.00
2018-10-19T08:20:29.253Z,12.10
2018-10-19T08:22:57.000Z,12.20
2018-10-19T08:25:24.581Z,12.40
2018-10-19T08:27:52.289Z,12.30
2018-10-19T08:30:19.965Z,12.30
2018-10-19T08:32:47.624Z,12.10
2018-10-19T08:35:15.402Z,12.30
2018-10-19T08:37:43.134Z,12.30
2018-10-19T08:40:10.786Z,12.30
2018-10-19T08:42:38.456Z,12.30
2018-10-19T08:45:07.217Z,12.30
2018-10-19T08:47:34.879Z,12.50
2018-10-19T08:50:02.545Z,12.70
2018-10-19T08:52:30.283Z,12.60
2018-10-19T08:54:57.987Z,12.70
2018-10-19T08:57:25.677Z,12.60
2018-10-19T08:59:53.358Z,12.50
2018-10-19T09:02:21.120Z,12.40
2018-10-19T09:04:48.828Z,12.40
2018-10-19T09:07:16.480Z,12.60
2018-10-19T09:09:44.167Z,12.50
2018-10-19T09:12:11.893Z,12.60
2018-10-19T09:14:46.872Z,12.90
2018-10-19T09:17:14.588Z,13.00
2018-10-19T09:19:42.236Z,12.90
2018-10-19T09:22:09.915Z,12.90
2018-10-19T09:24:37.617Z,12.90
2018-10-19T09:27:05.352Z,12.90
2018-10-19T09:29:33.188Z,13.00
2018-10-19T09:32:00.835Z,13.00
2018-10-19T09:34:28.490Z,13.20
2018-10-19T09:36:56.241Z,13.40
2018-10-19T09:39:23.880Z,13.60
2018-10-19T09:41:51.607Z,13.60
2018-10-19T09:44:19.274Z,13.80
2018-10-19T09:46:46.981Z,13.70
2018-10-19T09:49:14.746Z,13.70
2018-10-19T09:51:42.793Z,13.50
2018-10-19T09:54:11.679Z,13.60
2018-10-19T09:56:39.369Z,13.70
2018-10-19T09:59:07.108Z,13.70
2018-10-19T10:01:34.993Z,13.40
2018-10-19T10:04:03.206Z,13.50
2018-10-19T10:06:30.950Z,13.60
2018-10-19T10:08:58.626Z,13.30
2018-10-19T10:11:27.380Z,13.50
2018-10-19T10:13:55.097Z,13.60
2018-10-19T10:16:22.789Z,13.40
2018-10-19T10:18:50.466Z,13.50
2018-10-19T10:21:18.306Z,13.60
2018-10-19T10:23:46.069Z,14.10
2018-10-19T10:26:14.203Z,14.20
2018-10-19T10:28:41.927Z,14.10
2018-10-19T10:31:09.671Z,14.00
2018-10-19T10:33:37.313Z,14.20
2018-10-19T10:36:05.077Z,14.30
2018-10-19T10:38:33.000Z,14.50
2018-10-19T10:41:00.685Z,14.10
2018-10-19T10:43:28.381Z,14.20
2018-10-19T10:45:56.101Z,14.50
2018-10-19T10:48:23.909Z,14.60
2018-10-19T10:50:51.594Z,14.90
2018-10-19T10:53:19.518Z,15.00
2018-10-19T10:55:47.261Z,15.20
2018-10-19T10:58:15.147Z,15.30
2018-10-19T11:00:42.909Z,15.40
2018-10-19T11:03:10.576Z,15.40
2018-10-19T11:05:38.324Z,15.60
2018-10-19T11:08:06.211Z,15.60
2018-10-19T11:10:34.123Z,16.00
2018-10-19T11:13:01.803Z,15.70
2018-10-19T11:15:29.489Z,15.80
2018-10-19T11:17:57.468Z,16.00
2018-10-19T11:20:25.245Z,16.10
2018-10-19T11:22:53.029Z,16.00
2018-10-19T11:25:21.760Z,16.20
2018-10-19T11:27:49.433Z,16.20
2018-10-19T11:30:17.136Z,15.60
2018-10-19T11:32:44.834Z,15.60
2018-10-19T11:35:12.501Z,15.60
2018-10-19T11:37:40.236Z,15.90
2018-10-19T11:40:20.449Z,16.10
2018-10-19T11:42:48.141Z,15.80
2018-10-19T11:45:15.816Z,15.80
2018-10-19T11:47:43.567Z,16.00
2018-10-19T11:50:11.221Z,16.20
2018-10-19T11:52:38.930Z,15.90
2018-10-19T11:55:06.748Z,15.80
2018-10-19T11:57:34.375Z,15.60
2018-10-19T12:00:02.065Z,15.80
2018-10-19T12:02:29.717Z,16.30
2018-10-19T12:04:57.402Z,16.50
2018-10-19T12:07:25.146Z,16.50
2018-10-19T12:09:52.826Z,16.60
2018-10-19T12:12:20.498Z,16.80
2018-10-19T12:14:48.178Z,16.80
2018-10-19T12:17:15.866Z,16.40
2018-10-19T12:19:43.524Z,16.40
2018-10-19T12:22:11.189Z,16.70
2018-10-19T12:24:38.828Z,16.70
2018-10-19T12:27:06.551Z,16.80
2018-10-19T12:29:34.247Z,17.20
2018-10-19T12:32:01.926Z,17.40
2018-10-19T12:34:29.585Z,17.00
2018-10-19T12:36:57.330Z,16.80
2018-10-19T12:39:24.974Z,17.30
2018-10-19T12:41:52.992Z,17.20
2018-10-19T12:44:20.650Z,17.60
2018-10-19T12:46:54.073Z,17.90
2018-10-19T12:49:23.031Z,17.60
2018-10-19T12:51:50.717Z,17.30
2018-10-19T12:54:18.537Z,17.60
2018-10-19T12:56:46.393Z,17.40
2018-10-19T12:59:14.149Z,17.70
2018-10-19T13:01:41.857Z,17.40
2018-10-19T13:04:09.574Z,17.80
2018-10-19T13:06:37.253Z,17.50
2018-10-19T13:09:07.667Z,17.50
2018-10-19T13:11:35.248Z,17.70
2018-10-19T13:14:02.916Z,18.20
2018-10-19T13:16:30.615Z,18.10
2018-10-19T13:18:58.337Z,18.20
2018-10-19T13:21:25.958Z,18.10
2018-10-19T13:23:54.418Z,18.40
2018-10-19T13:26:22.057Z,18.30
2018-10-19T13:28:49.724Z,18.30
2018-10-19T13:31:17.377Z,18.00
2018-10-19T13:33:45.053Z,17.90
2018-10-19T13:36:12.842Z,18.70
2018-10-19T13:38:40.401Z,19.10
2018-10-19T13:41:08.164Z,18.40
2018-10-19T13:43:35.927Z,18.20
2018-10-19T13:46:03.645Z,18.40
2018-10-19T13:48:31.346Z,18.20
2018-10-19T13:50:59.214Z,17.60
2018-10-19T13:53:26.891Z,18.00
2018-10-19T13:55:54.567Z,17.70
2018-10-19T13:58:22.278Z,17.90
2018-10-19T14:00:49.906Z,18.70
2018-10-19T14:03:18.403Z,19.30
2018-10-19T14:05:46.927Z,19.80
2018-10-19T14:08:15.430Z,19.70
2018-10-19T14:10:43.906Z,19.70
2018-10-19T14:13:12.330Z,19.60
2018-10-19T14:15:40.769Z,19.10
2018-10-19T14:18:09.201Z,18.70
2018-10-19T14:20:37.678Z,18.50
2018-10-19T14:23:06.750Z,18.50
2018-10-19T14:25:35.243Z,18.20
2018-10-19T14:28:03.708Z,18.50
2018-10-19T14:30:32.229Z,18.70
2018-10-19T14:33:00.819Z,18.70
2018-10-19T14:35:29.255Z,18.00
2018-10-19T14:37:58.374Z,18.00
2018-10-19T14:40:26.818Z,18.90
2018-10-19T14:42:55.301Z,18.70
2018-10-19T14:45:23.759Z,18.70
2018-10-19T14:47:52.219Z,18.60
2018-10-19T14:50:20.770Z,18.50
2018-10-19T14:52:49.209Z,18.60
2018-10-19T14:55:18.741Z,18.30
2018-10-19T14:57:47.190Z,18.50
2018-10-19T15:00:17.811Z,18.40
2018-10-19T15:02:46.438Z,18.30
2018-10-19T15:05:16.410Z,18.50
2018-10-19T15:07:44.863Z,18.80
2018-10-19T15:10:15.692Z,18.60
2018-10-19T15:12:44.226Z,17.90
2018-10-19T15:15:15.290Z,17.10
2018-10-19T15:17:44.025Z,16.60
2018-10-19T15:20:13.374Z,16.40
2018-10-19T15:22:41.822Z,16.40
2018-10-19T15:25:10.752Z,16.30
2018-10-19T15:27:40.245Z,16.30
2018-10-19T15:30:11.068Z,16.20
2018-10-19T15:32:39.429Z,16.10
2018-10-19T15:35:08.166Z,16.10
2018-10-19T15:37:36.607Z,16.10
2018-10-19T15:40:05.726Z,15.90
2018-10-19T15:42:34.177Z,15.70
2018-10-19T15:45:02.749Z,15.70
2018-10-19T15:47:32.307Z,15.70
2018-10-19T15:50:00.783Z,15.70
2018-10-19T15:52:29.672Z,15.70
2018-10-19T15:54:58.217Z,15.60
2018-10-19T15:57:26.738Z,15.60
2018-10-19T15:59:55.189Z,15.60
2018-10-19T16:02:23.711Z,15.60
2018-10-19T16:04:52.182Z,15.60
2018-10-19T16:07:20.642Z,15.60
2018-10-19T16:09:49.124Z,15.60
2018-10-19T16:12:17.566Z,15.60
2018-10-19T16:14:46.066Z,15.50
2018-10-19T16:17:14.594Z,15.50
2018-10-19T16:19:43.165Z,15.30
2018-10-19T16:22:11.703Z,15.20
2018-10-19T16:24:40.195Z,15.20
2018-10-19T16:27:08.684Z,15.10
2018-10-19T16:29:37.092Z,15.10
2018-10-19T16:32:06.009Z,15.10
2018-10-19T16:34:34.829Z,15.00
2018-10-19T16:37:03.251Z,15.00
2018-10-19T16:39:31.690Z,14.90
2018-10-19T16:42:00.163Z,14.80
2018-10-19T16:44:29.232Z,14.70
2018-10-19T16:46:57.899Z,14.60
2018-10-19T16:49:26.349Z,14.50
2018-10-19T16:51:54.842Z,14.50
2018-10-19T16:54:23.285Z,14.40
2018-10-19T16:56:51.760Z,14.40
2018-10-19T16:59:20.196Z,14.40
2018-10-19T17:01:48.711Z,14.30
2018-10-19T17:04:17.147Z,14.30
2018-10-19T17:06:45.578Z,14.20
2018-10-19T17:09:14.745Z,14.00
2018-10-19T17:11:43.272Z,13.90
2018-10-19T17:14:12.018Z,13.80
2018-10-19T17:16:40.475Z,13.50
2018-10-19T17:19:09.452Z,13.40
2018-10-19T17:21:38.071Z,13.30
2018-10-19T17:24:07.075Z,13.20
2018-10-19T17:26:35.613Z,13.20
2018-10-19T17:29:04.432Z,13.20
2018-10-19T17:31:33.176Z,13.30
2018-10-19T17:34:01.575Z,13.50
2018-10-19T17:36:30.037Z,13.60
2018-10-19T17:38:58.632Z,13.80
2018-10-19T17:41:27.276Z,13.80
2018-10-19T17:43:55.825Z,13.80
2018-10-19T17:46:24.306Z,13.80
2018-10-19T17:48:52.993Z,13.80
2018-10-19T17:51:21.395Z,13.80
2018-10-19T17:53:49.982Z,13.80
2018-10-19T17:56:18.402Z,13.80
2018-10-19T17:58:46.866Z,13.80
2018-10-19T18:01:15.305Z,13.90
2018-10-19T18:03:43.833Z,13.90
2018-10-19T18:06:12.346Z,13.90
2018-10-19T18:08:40.768Z,13.90
2018-10-19T18:11:09.296Z,14.00
2018-10-19T18:13:37.709Z,14.00
2018-10-19T18:16:06.291Z,14.00
2018-10-19T18:18:34.706Z,14.00
2018-10-19T18:21:03.252Z,14.00
2018-10-19T18:23:31.725Z,13.90
2018-10-19T18:26:02.025Z,13.90
2018-10-19T18:28:31.132Z,13.90
2018-10-19T18:30:59.703Z,13.90
2018-10-19T18:33:28.233Z,13.80
2018-10-19T18:35:56.881Z,13.70
2018-10-19T18:38:25.349Z,13.70
2018-10-19T18:40:56.287Z,13.80
2018-10-19T18:43:24.989Z,13.80
2018-10-19T18:45:53.430Z,13.70
2018-10-19T18:48:21.903Z,13.70
2018-10-19T18:50:50.487Z,13.60
2018-10-19T18:53:18.918Z,13.60
2018-10-19T18:55:47.350Z,13.50
2018-10-19T18:58:15.834Z,13.40
2018-10-19T19:00:45.525Z,13.40
2018-10-19T19:03:14.222Z,13.40
2018-10-19T19:05:43.989Z,13.40
2018-10-19T19:08:12.511Z,13.40
2018-10-19T19:10:40.927Z,13.40
2018-10-19T19:13:14.728Z,13.30
2018-10-19T19:15:43.212Z,13.20
2018-10-19T19:18:11.649Z,13.10
2018-10-19T19:20:40.138Z,13.00
2018-10-19T19:23:09.120Z,13.10
2018-10-19T19:25:43.094Z,13.10
2018-10-19T19:28:11.582Z,13.10
2018-10-19T19:30:40.090Z,13.10
2018-10-19T19:33:14.039Z,13.10
2018-10-19T19:35:42.487Z,13.10
2018-10-19T19:38:11.048Z,13.10
2018-10-19T19:40:45.834Z,13.10
2018-10-19T19:43:14.269Z,13.10
2018-10-19T19:45:42.839Z,13.10
2018-10-19T19:48:16.646Z,13.10
2018-10-19T19:50:45.378Z,13.10
2018-10-19T19:53:13.915Z,13.10
2018-10-19T19:55:42.399Z,13.10
2018-10-19T19:58:10.998Z,13.00
2018-10-19T20:00:39.445Z,13.00
2018-10-19T20:03:07.923Z,12.90
2018-10-19T20:05:36.403Z,12.90
2018-10-19T20:08:05.318Z,12.80
2018-10-19T20:10:33.782Z,12.60
2018-10-19T20:13:02.411Z,12.60
2018-10-19T20:15:30.907Z,12.60
2018-10-19T20:18:00.067Z,12.40
2018-10-19T20:20:29.601Z,12.30
2018-10-19T20:22:58.148Z,12.20
2018-10-19T20:25:26.665Z,12.10
2018-10-19T20:27:55.190Z,11.90
2018-10-19T20:30:23.693Z,11.70
2018-10-19T20:32:52.215Z,11.40
2018-10-19T20:35:20.691Z,11.30
2018-10-19T20:37:49.286Z,11.20
2018-10-19T20:40:24.482Z,11.00
2018-10-19T20:42:53.486Z,10.90
2018-10-19T20:45:21.939Z,10.90
2018-10-19T20:47:50.418Z,10.80
2018-10-19T20:50:18.963Z,10.70
2018-10-19T20:52:47.438Z,10.60
2018-10-19T20:55:15.982Z,10.50
2018-10-19T20:57:44.459Z,10.40
2018-10-19T21:00:13.043Z,10.30
2018-10-19T21:02:41.562Z,10.20
2018-10-19T21:05:11.355Z,10.10
2018-10-19T21:07:39.880Z,10.00
2018-10-19T21:10:11.304Z,10.00
2018-10-19T21:12:39.789Z,9.90
2018-10-19T21:15:10.742Z,9.90
2018-10-19T21:17:39.574Z,9.80
2018-10-19T21:20:09.198Z,9.80
2018-10-19T21:22:37.736Z,9.80
2018-10-19T21:25:07.332Z,9.70
2018-10-19T21:27:36.001Z,9.70
2018-10-19T21:30:04.801Z,9.60
2018-10-19T21:32:33.208Z,9.60
2018-10-19T21:35:01.690Z,9.50
2018-10-19T21:37:30.171Z,9.50
2018-10-19T21:39:58.627Z,9.50
2018-10-19T21:42:27.106Z,9.60
2018-10-19T21:44:55.623Z,9.50
2018-10-19T21:47:24.529Z,9.50
2018-10-19T21:49:53.070Z,9.40
2018-10-19T21:52:21.550Z,9.40
2018-10-19T21:54:50.170Z,9.40
2018-10-19T21:57:18.746Z,9.40
2018-10-19T21:59:47.209Z,9.60
2018-10-19T22:02:16.706Z,9.70
2018-10-19T22:04:45.202Z,9.70
2018-10-19T22:07:13.774Z,9.80
2018-10-19T22:09:42.305Z,9.80
2018-10-19T22:12:10.858Z,9.90
2018-10-19T22:14:39.398Z,9.80
2018-10-19T22:17:07.976Z,9.70
2018-10-19T22:19:36.415Z,9.60
2018-10-19T22:22:04.963Z,9.50
2018-10-19T22:24:33.480Z,9.40
2018-10-19T22:27:08.283Z,9.30
2018-10-19T22:29:36.762Z,9.20
2018-10-19T22:32:05.695Z,9.10
2018-10-19T22:34:34.174Z,9.10
2018-10-19T22:37:02.668Z,9.00
2018-10-19T22:39:31.153Z,9.00
2018-10-19T22:41:59.627Z,8.90
2018-10-19T22:44:28.094Z,9.00
2018-10-19T22:46:56.866Z,8.90
2018-10-19T22:49:25.338Z,8.50
2018-10-19T22:51:53.834Z,8.80
2018-10-19T22:54:22.299Z,8.80
2018-10-19T22:56:50.818Z,8.70
2018-10-19T22:59:19.748Z,8.60
2018-10-19T23:01:48.211Z,8.50
2018-10-19T23:04:16.666Z,8.40
2018-10-19T23:06:45.241Z,8.30
2018-10-19T23:09:13.717Z,8.20
2018-10-19T23:11:42.173Z,8.20
2018-10-19T23:14:10.691Z,8.10
2018-10-19T23:16:39.164Z,8.10
2018-10-19T23:19:07.648Z,8.20
2018-10-19T23:21:36.464Z,8.10
2018-10-19T23:24:05.630Z,8.00
2018-10-19T23:26:34.194Z,8.00
2018-10-19T23:29:02.824Z,7.90
2018-10-19T23:31:31.419Z,8.00
2018-10-19T23:33:59.796Z,8.00
2018-10-19T23:36:28.242Z,8.00
2018-10-19T23:38:56.751Z,8.00
2018-10-19T23:41:25.206Z,8.10
2018-10-19T23:43:53.766Z,8.00
2018-10-19T23:46:22.193Z,8.00
2018-10-19T23:48:50.662Z,7.90
2018-10-19T23:51:19.142Z,7.80
2018-10-19T23:53:47.595Z,7.80
2018-10-19T23:56:16.095Z,7.70
2018-10-19T23:58:44.523Z,7.70
